Time;durP1;ratioP1;P1;durP2;ratioP2;P2;SDS_P1;SDS_P2;PMS_P1;PMS_P2;Temp;Humidity;BMP_temperature;BMP_pressure;BME280_temperature;BME280_humidity;BME280_pressure;Samples;Min_cycle;Max_cycle;Signal;HPM_P1;HPM_P2
2024/03/17 00:02:49;;;;;;;31.17;16.50;;;;;;;10.83;100.00;100204.09;6248476;28;20100;-79
2024/03/17 00:05:56;;;;;;;34.17;17.67;;;;;;;10.80;100.00;100205.13;6248586;28;20053;-78
2024/03/17 00:09:01;;;;;;;28.08;16.33;;;;;;;10.76;100.00;100198.41;6249701;28;20042;-78
2024/03/17 00:12:02;;;;;;;29.38;16.05;;;;;;;10.83;100.00;100198.88;6248376;28;20053;-78
2024/03/17 00:15:04;;;;;;;33.17;17.67;;;;;;;10.87;100.00;100195.16;6248066;28;20418;-78
2024/03/17 00:18:05;;;;;;;;;;;;;;;10.92;100.00;100197.50;6249063;28;20418;-78
2024/03/17 00:21:06;;;;;;;25.35;14.60;;;;;;;10.90;100.00;100192.38;6248922;28;19920;-71
2024/03/17 00:24:10;;;;;;;26.77;16.17;;;;;;;10.97;100.00;100198.06;6239123;28;20112;-71
2024/03/17 00:27:13;;;;;;;28.05;15.63;;;;;;;11.00;100.00;100188.28;6223009;28;20082;-78
2024/03/17 00:30:15;;;;;;;23.80;15.05;;;;;;;10.86;100.00;100176.06;6223524;28;20064;-78
2024/03/17 00:33:16;;;;;;;26.80;15.38;;;;;;;10.76;100.00;100187.13;6224192;28;20497;-78
2024/03/17 00:36:18;;;;;;;25.93;15.90;;;;;;;10.69;100.00;100184.91;6223259;28;20391;-78
2024/03/17 00:39:19;;;;;;;33.70;18.98;;;;;;;10.73;100.00;100179.47;6223607;28;20068;-78
2024/03/17 00:42:20;;;;;;;25.45;14.65;;;;;;;10.60;100.00;100168.94;6224523;28;20060;-77
2024/03/17 00:45:21;;;;;;;27.15;15.52;;;;;;;10.56;100.00;100172.66;6224707;28;21037;-78
2024/03/17 00:48:22;;;;;;;27.25;16.45;;;;;;;10.56;100.00;100175.25;6224375;28;20260;-78
2024/03/17 00:51:23;;;;;;;30.00;16.80;;;;;;;10.55;100.00;100163.16;6239073;28;20057;-77
2024/03/17 00:54:24;;;;;;;27.83;16.08;;;;;;;10.49;100.00;100166.97;6239163;28;20052;-78
2024/03/17 00:57:25;;;;;;;29.98;16.73;;;;;;;10.51;100.00;100169.50;6223854;28;20108;-77
2024/03/17 01:00:25;;;;;;;27.85;15.90;;;;;;;10.56;100.00;100165.66;6223009;28;20129;-78
2024/03/17 01:03:27;;;;;;;26.67;16.45;;;;;;;10.60;100.00;100167.16;6224013;28;20060;-78
2024/03/17 01:06:29;;;;;;;30.00;16.73;;;;;;;10.62;100.00;100169.69;6222673;28;20052;-71
2024/03/17 01:09:29;;;;;;;31.40;17.38;;;;;;;10.58;100.00;100168.19;6223315;28;20486;-71
2024/03/17 01:12:30;;;;;;;31.58;17.85;;;;;;;10.57;100.00;100169.13;6238691;28;20089;-71
2024/03/17 01:15:31;;;;;;;29.00;16.35;;;;;;;10.57;100.00;100164.75;6223016;28;20050;-77
2024/03/17 01:18:37;;;;;;;35.00;17.10;;;;;;;10.56;100.00;100168.28;6239118;28;20433;-78
2024/03/17 01:21:38;;;;;;;26.17;16.65;;;;;;;10.41;100.00;100170.03;6223957;28;20049;-78
2024/03/17 01:24:45;;;;;;;33.92;16.23;;;;;;;10.54;100.00;100167.53;6222219;28;20104;-78
2024/03/17 01:27:48;;;;;;;27.75;16.73;;;;;;;10.62;100.00;100175.72;6223344;28;20072;-78
2024/03/17 01:30:49;;;;;;;28.85;17.30;;;;;;;10.63;100.00;100174.81;6223791;28;20056;-78
2024/03/17 01:33:50;;;;;;;35.95;19.15;;;;;;;10.70;100.00;100177.91;6238486;28;20049;-78
2024/03/17 01:36:51;;;;;;;28.45;17.58;;;;;;;10.75;100.00;100177.63;6222112;28;20720;-78
2024/03/17 01:39:52;;;;;;;32.35;17.85;;;;;;;10.68;100.00;100167.53;6222202;28;20046;-78
2024/03/17 01:42:53;;;;;;;30.33;17.00;;;;;;;10.69;100.00;100169.22;6221723;28;20108;-78
2024/03/17 01:45:56;;;;;;;29.30;16.95;;;;;;;10.71;100.00;100176.97;6223312;28;20049;-78
2024/03/17 01:49:00;;;;;;;28.15;17.38;;;;;;;10.68;100.00;100177.16;6223173;28;20049;-78
2024/03/17 01:52:03;;;;;;;31.45;17.23;;;;;;;10.73;100.00;100182.09;6222820;28;20058;-80
2024/03/17 01:55:05;;;;;;;30.40;16.48;;;;;;;10.71;100.00;100182.19;6223348;28;20050;-78
2024/03/17 01:58:10;;;;;;;36.17;18.23;;;;;;;10.71;100.00;100176.13;6238265;28;20050;-78
2024/03/17 02:01:15;;;;;;;33.00;17.50;;;;;;;10.73;100.00;100176.88;6222975;28;20406;-77
2024/03/17 02:04:17;;;;;;;32.50;18.52;;;;;;;10.76;100.00;100172.31;6223285;28;20476;-78
2024/03/17 02:07:18;;;;;;;47.22;19.80;;;;;;;10.69;100.00;100173.63;6223249;28;20054;-78
2024/03/17 02:10:19;;;;;;;32.65;18.23;;;;;;;10.76;100.00;100180.13;6223471;28;20054;-78
2024/03/17 02:13:21;;;;;;;47.30;18.92;;;;;;;10.68;100.00;100179.75;6238382;28;20414;-78
2024/03/17 02:16:23;;;;;;;35.20;18.25;;;;;;;10.60;100.00;100174.16;6222188;28;20050;-78
2024/03/17 02:19:24;;;;;;;36.40;18.35;;;;;;;10.56;100.00;100176.09;6237263;28;20084;-78
2024/03/17 02:22:27;;;;;;;42.70;19.45;;;;;;;10.71;100.00;100176.97;6222439;28;20536;-77
2024/03/17 02:25:28;;;;;;;42.35;18.65;;;;;;;10.83;100.00;100178.84;6238304;28;20049;-78
2024/03/17 02:28:37;;;;;;;47.22;18.95;;;;;;;10.82;100.00;100179.78;6221389;28;20060;-77
2024/03/17 02:31:38;;;;;;;57.85;20.17;;;;;;;10.79;100.00;100181.72;6222769;28;20497;-77
2024/03/17 02:34:43;;;;;;;62.08;20.33;;;;;;;10.77;100.00;100184.44;6222985;28;20058;-77
2024/03/17 02:37:46;;;;;;;63.17;19.38;;;;;;;10.83;100.00;100185.81;6221715;28;20056;-78
2024/03/17 02:40:47;;;;;;;40.20;19.45;;;;;;;10.84;100.00;100185.75;6224144;28;20124;-71
2024/03/17 02:43:48;;;;;;;61.75;19.35;;;;;;;10.70;100.00;100185.72;6225344;28;20054;-71
2024/03/17 02:46:50;;;;;;;42.10;19.23;;;;;;;10.79;100.00;100193.03;6244654;28;20183;-71
2024/03/17 02:49:52;;;;;;;48.75;18.85;;;;;;;10.76;100.00;100193.19;6266025;28;20080;-71
2024/03/17 02:52:52;;;;;;;54.30;19.45;;;;;;;10.82;100.00;100192.81;6250681;28;20422;-70
2024/03/17 02:55:53;;;;;;;41.33;18.33;;;;;;;10.76;100.00;100189.75;6250971;28;20049;-71
2024/03/17 02:58:54;;;;;;;52.17;18.02;;;;;;;10.66;100.00;100187.66;6250923;28;20045;-71
2024/03/17 03:01:55;;;;;;;38.42;18.88;;;;;;;10.74;100.00;100196.84;6249445;28;20072;-71
2024/03/17 03:05:01;;;;;;;45.78;19.38;;;;;;;10.69;100.00;100200.56;6250612;28;20058;-71
2024/03/17 03:08:04;;;;;;;59.05;19.80;;;;;;;10.63;100.00;100193.09;6244109;28;20050;-71
2024/03/17 03:11:11;;;;;;;37.20;17.70;;;;;;;10.68;100.00;100191.03;6226016;28;20050;-71
2024/03/17 03:14:12;;;;;;;46.83;19.08;;;;;;;10.81;100.00;100196.38;6225818;28;20188;-71
2024/03/17 03:17:14;;;;;;;57.88;18.58;;;;;;;10.87;100.00;100192.53;6234262;28;20053;-71
2024/03/17 03:20:17;;;;;;;50.58;17.25;;;;;;;10.73;100.00;100182.09;6249036;28;20053;-71
2024/03/17 03:23:21;;;;;;;29.92;16.42;;;;;;;10.70;100.00;100190.94;6248793;28;20053;-71
2024/03/17 03:26:23;;;;;;;43.53;16.75;;;;;;;10.74;100.00;100192.44;6250127;28;20539;-71
2024/03/17 03:29:24;;;;;;;51.63;18.85;;;;;;;10.76;100.00;100182.75;6249933;28;20497;-71
2024/03/17 03:32:24;;;;;;;53.53;17.08;;;;;;;10.81;100.00;100190.31;6248896;28;20049;-71
2024/03/17 03:35:28;;;;;;;48.05;17.33;;;;;;;10.80;100.00;100186.03;6249766;28;20057;-71
2024/03/17 03:38:29;;;;;;;41.42;17.75;;;;;;;10.80;100.00;100180.81;6248797;28;20061;-71
2024/03/17 03:41:31;;;;;;;53.30;16.58;;;;;;;10.71;100.00;100182.19;6248447;28;20053;-70
2024/03/17 03:44:33;;;;;;;35.13;16.80;;;;;;;10.82;100.00;100184.16;6249948;28;20056;-71
2024/03/17 03:47:33;;;;;;;47.93;18.03;;;;;;;10.85;100.00;100197.88;6248152;28;20378;-71
2024/03/17 03:50:35;;;;;;;43.05;16.70;;;;;;;10.94;100.00;100199.09;6248341;28;20081;-71
2024/03/17 03:53:37;;;;;;;49.55;16.65;;;;;;;10.84;100.00;100188.34;6248258;28;20050;-71
2024/03/17 03:56:38;;;;;;;53.95;18.02;;;;;;;10.91;100.00;100196.66;6248017;28;20050;-71
2024/03/17 03:59:39;;;;;;;40.38;15.38;;;;;;;10.92;100.00;100187.06;6248866;28;20086;-71
2024/03/17 04:02:43;;;;;;;43.60;16.42;;;;;;;10.85;100.00;100194.41;6248342;28;20485;-71
2024/03/17 04:05:44;;;;;;;41.33;16.20;;;;;;;10.81;100.00;100195.53;6249222;28;20057;-73
2024/03/17 04:08:45;;;;;;;43.58;15.55;;;;;;;10.88;100.00;100197.69;6247711;28;20046;-72
2024/03/17 04:11:46;;;;;;;65.45;15.30;;;;;;;10.83;100.00;100204.09;6248108;28;20072;-71
2024/03/17 04:14:52;;;;;;;46.80;15.48;;;;;;;10.84;100.00;100214.47;6247542;28;20136;-71
2024/03/17 04:17:53;;;;;;;58.95;14.30;;;;;;;10.66;100.00;100220.75;6248781;28;20045;-71
2024/03/17 04:20:55;;;;;;;38.33;15.45;;;;;;;10.67;100.00;100228.50;6248550;28;20627;-72
2024/03/17 04:24:01;;;;;;;;;;;;;;;10.66;100.00;100229.41;6247675;28;20054;-71
2024/03/17 04:27:04;;;;;;;34.95;13.50;;;;;;;10.66;100.00;100225.97;6247399;28;19972;-71
2024/03/17 04:30:06;;;;;;;54.95;13.65;;;;;;;10.80;100.00;100236.44;6247291;28;20049;-71
2024/03/17 04:33:10;;;;;;;34.10;13.15;;;;;;;10.89;100.00;100222.88;6247203;28;20555;-71
2024/03/17 04:36:11;;;;;;;41.90;12.52;;;;;;;10.93;100.00;100223.50;6247253;28;20508;-71
2024/03/17 04:39:11;;;;;;;23.38;11.98;;;;;;;10.82;100.00;100218.09;6247545;28;20060;-71
2024/03/17 04:42:17;;;;;;;41.70;12.40;;;;;;;10.76;100.00;100223.69;6248187;28;20057;-71
2024/03/17 04:45:18;;;;;;;48.33;13.85;;;;;;;10.77;100.00;100226.22;6248332;28;20474;-71
2024/03/17 04:48:19;;;;;;;26.08;12.82;;;;;;;10.79;100.00;100219.13;6246797;28;20068;-71
2024/03/17 04:51:20;;;;;;;46.45;13.35;;;;;;;10.86;100.00;100235.25;6248037;28;20065;-72
2024/03/17 04:54:21;;;;;;;26.00;13.02;;;;;;;11.01;100.00;100238.72;6246697;28;20128;-72
2024/03/17 04:57:22;;;;;;;23.08;13.45;;;;;;;10.99;100.00;100232.75;6248303;28;20112;-71
2024/03/17 05:00:25;;;;;;;31.33;14.55;;;;;;;10.98;100.00;100238.91;6246603;28;20053;-71
2024/03/17 05:03:29;;;;;;;40.15;13.77;;;;;;;11.02;100.00;100240.41;6262647;28;20064;-71
2024/03/17 05:06:33;;;;;;;28.30;14.30;;;;;;;11.06;100.00;100242.75;6247808;28;20053;-72
2024/03/17 05:09:33;;;;;;;43.53;14.73;;;;;;;11.00;100.00;100240.50;6247526;28;20486;-71
2024/03/17 05:12:34;;;;;;;43.17;15.85;;;;;;;10.91;100.00;100237.59;6246372;28;20057;-71
2024/03/17 05:15:37;;;;;;;33.25;16.00;;;;;;;10.92;100.00;100245.34;6247527;28;20592;-71
2024/03/17 05:18:39;;;;;;;27.85;15.43;;;;;;;10.94;100.00;100250.47;6246193;28;20505;-71
2024/03/17 05:21:42;;;;;;;35.97;16.77;;;;;;;10.97;100.00;100245.06;6247460;28;20111;-71
2024/03/17 05:24:43;;;;;;;35.38;15.82;;;;;;;10.91;100.00;100246.25;6246619;28;20049;-71
2024/03/17 05:27:44;;;;;;;37.55;17.90;;;;;;;10.91;100.00;100240.19;6245529;28;20054;-71
2024/03/17 05:30:45;;;;;;;39.88;19.42;;;;;;;10.92;100.00;100244.50;6245917;28;20403;-71
2024/03/17 05:33:47;;;;;;;33.95;15.90;;;;;;;10.87;100.00;100237.78;6244342;28;20045;-71
2024/03/17 05:36:48;;;;;;;41.72;17.35;;;;;;;11.06;100.00;100247.13;6243871;28;20088;-71
2024/03/17 05:39:49;;;;;;;37.75;18.17;;;;;;;11.06;100.00;100242.75;6246272;28;20094;-71
2024/03/17 05:42:50;;;;;;;31.17;18.00;;;;;;;10.95;100.00;100245.13;6245879;28;20444;-71
2024/03/17 05:45:57;;;;;;;33.45;16.63;;;;;;;10.95;100.00;100247.75;6246514;28;20092;-71
2024/03/17 05:48:57;;;;;;;31.70;15.48;;;;;;;10.87;100.00;100244.75;6246162;28;20049;-71
2024/03/17 05:51:58;;;;;;;31.75;16.83;;;;;;;10.94;100.00;100251.31;6234397;28;20065;-72
2024/03/17 05:54:59;;;;;;;32.70;16.58;;;;;;;10.96;100.00;100249.44;6222513;28;20054;-72
2024/03/17 05:58:02;;;;;;;32.78;15.10;;;;;;;11.10;100.00;100243.41;6228184;28;20077;-71
2024/03/17 06:01:04;;;;;;;37.58;16.75;;;;;;;10.97;100.00;100235.44;6247093;28;20061;-72
2024/03/17 06:04:04;;;;;;;29.30;15.75;;;;;;;10.85;100.00;100242.25;6245710;28;20045;-71
2024/03/17 06:07:06;;;;;;;34.80;17.95;;;;;;;10.95;100.00;100246.91;6245684;28;20582;-72
2024/03/17 06:10:10;;;;;;;33.97;17.88;;;;;;;11.12;100.00;100254.59;6245667;28;20057;-71
2024/03/17 06:13:15;;;;;;;32.65;17.85;;;;;;;11.07;100.00;100254.03;6247120;28;20061;-72
2024/03/17 06:16:16;;;;;;;31.15;15.98;;;;;;;11.17;100.00;100260.38;6250864;28;20085;-71
2024/03/17 06:19:20;;;;;;;29.70;16.77;;;;;;;11.13;100.00;100260.66;6251840;28;20045;-71
2024/03/17 06:22:21;;;;;;;33.95;16.58;;;;;;;11.11;100.00;100265.13;6250725;28;20061;-71
2024/03/17 06:25:27;;;;;;;72.95;29.58;;;;;;;11.26;100.00;100266.81;6251560;28;20057;-71
2024/03/17 06:28:29;;;;;;;34.88;18.85;;;;;;;11.19;100.00;100273.34;6243276;28;20462;-71
2024/03/17 06:31:33;;;;;;;44.97;22.85;;;;;;;11.09;100.00;100273.88;6241474;28;20114;-71
2024/03/17 06:34:37;;;;;;;33.13;17.13;;;;;;;11.25;100.00;100275.59;6231893;28;20061;-71
2024/03/17 06:37:39;;;;;;;43.70;21.15;;;;;;;11.13;100.00;100266.72;6242111;28;20045;-70
2024/03/17 06:40:49;;;;;;;39.05;20.77;;;;;;;11.07;100.00;100274.91;6226408;28;20057;-71
2024/03/17 06:43:52;;;;;;;34.95;18.35;;;;;;;11.03;100.00;100269.03;6239392;28;20136;-71
2024/03/17 06:46:53;;;;;;;37.30;18.58;;;;;;;11.12;100.00;100269.41;6250745;28;20057;-71
2024/03/17 06:49:53;;;;;;;30.90;15.18;;;;;;;11.07;100.00;100270.50;6249991;28;20054;-71
2024/03/17 06:52:54;;;;;;;28.17;15.75;;;;;;;11.04;100.00;100269.88;6250699;28;20068;-71
2024/03/17 06:56:01;;;;;;;37.60;18.75;;;;;;;11.23;100.00;100275.66;6252764;28;20099;-71
2024/03/17 06:59:04;;;;;;;30.88;18.13;;;;;;;11.26;100.00;100267.66;6240654;28;20058;-77
2024/03/17 07:02:07;;;;;;;34.95;18.80;;;;;;;11.47;100.00;100272.53;6281507;28;20045;-77
2024/03/17 07:05:12;;;;;;;36.50;19.27;;;;;;;11.35;100.00;100274.09;6235072;28;20057;-77
2024/03/17 07:08:14;;;;;;;33.92;18.52;;;;;;;11.63;100.00;100267.16;6233922;28;20406;-77
2024/03/17 07:11:17;;;;;;;35.60;19.02;;;;;;;11.69;100.00;100265.03;6233883;28;20140;-77
2024/03/17 07:14:17;;;;;;;31.15;16.02;;;;;;;11.66;100.00;100270.44;6228943;28;20046;-77
2024/03/17 07:17:18;;;;;;;24.95;14.43;;;;;;;11.72;100.00;100265.78;6246506;28;20056;-77
2024/03/17 07:20:19;;;;;;;25.92;14.73;;;;;;;11.70;100.00;100264.09;6229507;28;20137;-77
2024/03/17 07:23:20;;;;;;;25.88;14.90;;;;;;;11.98;100.00;100261.53;6231103;28;20049;-77
2024/03/17 07:26:21;;;;;;;22.77;13.73;;;;;;;12.15;100.00;100269.16;6249087;28;20199;-78
2024/03/17 07:29:22;;;;;;;22.73;13.68;;;;;;;11.75;100.00;100271.63;6233874;28;20042;-77
2024/03/17 07:32:23;;;;;;;22.20;13.85;;;;;;;11.93;100.00;100267.06;6272696;28;20084;-77
2024/03/17 07:35:24;;;;;;;26.45;15.93;;;;;;;11.95;100.00;100269.59;6254966;28;20052;-78
2024/03/17 07:38:26;;;;;;;26.83;14.27;;;;;;;11.78;100.00;100262.78;6274002;28;20539;-77
2024/03/17 07:41:26;;;;;;;24.50;14.60;;;;;;;11.76;100.00;100264.66;6266981;28;20060;-77
2024/03/17 07:44:33;;;;;;;23.95;14.05;;;;;;;11.94;100.00;100273.13;6256192;28;20045;-77
2024/03/17 07:47:35;;;;;;;24.38;14.40;;;;;;;12.44;100.00;100266.44;6261690;28;20057;-77
2024/03/17 07:50:36;;;;;;;23.05;14.02;;;;;;;12.38;100.00;100264.22;6253880;28;20570;-77
2024/03/17 07:53:38;;;;;;;23.40;14.32;;;;;;;12.49;100.00;100266.97;6257355;28;20063;-77
2024/03/17 07:56:39;;;;;;;25.02;14.75;;;;;;;12.00;100.00;100268.34;6247194;28;20049;-78
2024/03/17 07:59:42;;;;;;;24.08;14.52;;;;;;;12.13;100.00;100268.41;6238889;28;20095;-77
2024/03/17 08:02:46;;;;;;;26.42;17.13;;;;;;;12.25;100.00;100274.63;6252601;28;20099;-77
2024/03/17 08:05:51;;;;;;;29.38;15.68;;;;;;;12.00;100.00;100267.50;6261956;28;20053;-78
2024/03/17 08:08:52;;;;;;;26.70;15.30;;;;;;;12.42;100.00;100273.53;6229670;28;20051;-78
2024/03/17 08:11:53;;;;;;;27.38;15.27;;;;;;;12.36;100.00;100272.16;6242415;28;20607;-78
2024/03/17 08:14:54;;;;;;;28.08;14.82;;;;;;;12.53;100.00;100260.59;6239708;28;20054;-78
2024/03/17 08:17:57;;;;;;;27.17;14.88;;;;;;;12.61;100.00;100260.91;6244782;28;20041;-78
2024/03/17 08:21:04;;;;;;;25.30;13.88;;;;;;;12.70;100.00;100251.59;6257695;28;20057;-78
2024/03/17 08:24:05;;;;;;;24.90;14.88;;;;;;;12.90;100.00;100248.50;6272978;28;20048;-78
2024/03/17 08:27:06;;;;;;;23.25;13.55;;;;;;;12.99;100.00;100247.06;6272615;28;20056;-78
2024/03/17 08:30:10;;;;;;;27.80;14.77;;;;;;;13.01;100.00;100253.03;6272666;28;20260;-78
2024/03/17 08:33:11;;;;;;;23.77;14.65;;;;;;;13.13;100.00;100243.47;6271456;28;20107;-78
2024/03/17 08:36:11;;;;;;;24.70;14.65;;;;;;;13.07;100.00;100238.66;6271451;28;20049;-77
2024/03/17 08:39:13;;;;;;;22.92;14.02;;;;;;;12.52;100.00;100250.22;6271738;28;20045;-78
2024/03/17 08:42:14;;;;;;;24.50;13.23;;;;;;;12.50;100.00;100253.78;6271023;28;20091;-71
2024/03/17 08:45:16;;;;;;;25.73;14.15;;;;;;;12.38;100.00;100261.59;6252607;28;20056;-71
2024/03/17 08:48:16;;;;;;;26.43;14.90;;;;;;;12.34;100.00;100258.34;6248309;28;20045;-71
2024/03/17 08:51:17;;;;;;;27.38;14.52;;;;;;;12.52;100.00;100260.69;6265670;28;20390;-71
2024/03/17 08:54:18;;;;;;;24.27;14.18;;;;;;;12.34;100.00;100253.09;6271862;28;20206;-71
2024/03/17 08:57:19;;;;;;;26.48;14.25;;;;;;;12.32;100.00;100262.00;6272027;28;20057;-71
2024/03/17 09:00:20;;;;;;;12.90;6.22;;;;;;;11.08;100.00;100260.94;6267941;28;20083;-71
2024/03/17 09:03:20;;;;;;;11.15;4.35;;;;;;;10.63;100.00;100244.44;6259504;28;20507;-70
2024/03/17 09:06:22;;;;;;;7.38;4.35;;;;;;;10.30;100.00;100249.84;6251225;28;20508;-78
2024/03/17 09:09:23;;;;;;;5.90;3.67;;;;;;;10.15;100.00;100243.66;6246286;28;20132;-77
2024/03/17 09:12:23;;;;;;;6.70;3.30;;;;;;;9.88;100.00;100241.66;6270763;28;20512;-77
2024/03/17 09:15:24;;;;;;;4.95;3.20;;;;;;;9.82;100.00;100240.25;6259140;28;20525;-77
2024/03/17 09:18:27;;;;;;;5.88;2.78;;;;;;;9.92;100.00;100244.94;6250110;28;20141;-78
2024/03/17 09:21:28;;;;;;;4.80;2.65;;;;;;;9.85;100.00;100249.66;6249166;28;20136;-78
2024/03/17 09:24:28;;;;;;;4.63;2.30;;;;;;;9.45;100.00;100241.38;6260189;28;20098;-77
2024/03/17 09:27:29;;;;;;;4.28;2.20;;;;;;;9.44;100.00;100235.34;6245677;28;20064;-77
2024/03/17 09:30:30;;;;;;;3.92;1.65;;;;;;;9.47;100.00;100242.13;6255011;28;20045;-77
2024/03/17 09:33:31;;;;;;;4.90;1.98;;;;;;;9.59;100.00;100248.47;6257817;28;20095;-77
2024/03/17 09:36:32;;;;;;;2.22;1.70;;;;;;;9.37;100.00;100251.34;6257700;28;20091;-77
2024/03/17 09:39:33;;;;;;;3.35;1.88;;;;;;;9.45;100.00;100247.44;6249508;28;20045;-77
2024/03/17 09:42:33;;;;;;;3.15;1.80;;;;;;;9.53;100.00;100261.81;6246823;28;20064;-77
2024/03/17 09:45:35;;;;;;;5.15;3.22;;;;;;;9.57;100.00;100261.56;6255120;28;20056;-77
2024/03/17 09:48:36;;;;;;;4.07;2.10;;;;;;;9.59;100.00;100256.28;6258300;28;20048;-77
2024/03/17 09:51:39;;;;;;;4.38;1.75;;;;;;;9.52;97.04;100260.97;6264680;28;20057;-77
2024/03/17 09:54:40;;;;;;;5.15;1.88;;;;;;;9.15;94.25;100251.66;6254083;28;20049;-76
2024/03/17 09:57:41;;;;;;;2.72;1.60;;;;;;;9.45;90.96;100252.66;6257722;28;20057;-77
2024/03/17 10:00:44;;;;;;;5.03;1.85;;;;;;;9.34;90.94;100252.38;6268946;28;20065;-77
2024/03/17 10:03:54;;;;;;;4.43;1.20;;;;;;;9.15;85.93;100246.47;6259584;28;20060;-77
2024/03/17 10:06:58;;;;;;;14.73;1.05;;;;;;;9.01;83.93;100240.19;6232040;28;20049;-77
2024/03/17 10:10:20;;;;;;;4.78;2.08;;;;;;;9.14;84.19;100244.75;6270764;28;20132;-77
2024/03/17 10:13:23;;;;;;;5.43;1.77;;;;;;;9.32;82.72;100246.41;6258824;28;20050;-76
2024/03/17 10:16:31;;;;;;;10.38;2.00;;;;;;;9.45;83.72;100252.66;6262300;28;20057;-77
2024/03/17 10:19:37;;;;;;;5.85;2.55;;;;;;;9.38;83.96;100243.47;6278784;28;20052;-77
2024/03/17 10:22:38;;;;;;;5.15;1.60;;;;;;;9.51;83.03;100242.81;6264582;28;20132;-76
2024/03/17 10:25:39;;;;;;;2.90;1.83;;;;;;;9.38;82.69;100238.25;6247464;28;20457;-76
2024/03/17 10:28:44;;;;;;;7.47;1.80;;;;;;;9.62;81.63;100225.69;6253329;28;20560;-76
2024/03/17 10:31:45;;;;;;;6.70;2.42;;;;;;;9.94;80.66;100235.28;6252730;28;20087;-76
2024/03/17 10:34:46;;;;;;;6.80;1.70;;;;;;;10.56;80.58;100232.66;6292880;28;20049;-76
2024/03/17 10:38:04;;;;;;;4.72;2.22;;;;;;;10.74;77.39;100228.16;6253776;28;20052;-76
2024/03/17 10:41:05;;;;;;;4.03;2.15;;;;;;;11.11;77.15;100223.34;6248492;28;20057;-77
2024/03/17 10:44:09;;;;;;;5.50;2.15;;;;;;;11.29;74.70;100217.00;6252896;28;20054;-76
2024/03/17 10:47:21;;;;;;;9.05;2.25;;;;;;;11.92;75.92;100223.53;6252923;28;20089;-76
2024/03/17 10:50:26;;;;;;;5.90;2.03;;;;;;;11.53;74.99;100222.50;6253974;28;20511;-76
2024/03/17 10:53:27;;;;;;;2.95;1.58;;;;;;;11.32;71.82;100236.88;6253511;28;20570;-76
2024/03/17 10:56:31;;;;;;;5.38;2.00;;;;;;;11.33;72.98;100251.63;6252774;28;20049;-76
2024/03/17 10:59:46;;;;;;;9.85;2.42;;;;;;;11.15;74.73;100251.78;6251592;28;20474;-76
2024/03/17 11:02:50;;;;;;;4.32;2.50;;;;;;;11.11;73.74;100239.84;6250336;28;20136;-76
2024/03/17 11:05:57;;;;;;;4.80;2.40;;;;;;;11.24;72.95;100242.56;6249393;28;20057;-76
2024/03/17 11:09:01;;;;;;;4.97;2.10;;;;;;;11.21;73.90;100245.38;6248563;28;20056;-76
2024/03/17 11:12:04;;;;;;;4.50;2.17;;;;;;;11.36;73.78;100254.03;6249409;28;20052;-76
2024/03/17 11:15:40;;;;;;;3.67;2.30;;;;;;;11.32;74.16;100249.94;6249870;28;20053;-76
2024/03/17 11:18:41;;;;;;;7.40;2.42;;;;;;;11.25;74.11;100250.28;6248256;28;20504;-76
2024/03/17 11:21:42;;;;;;;3.43;1.77;;;;;;;11.11;73.19;100249.47;6241752;28;20419;-76
2024/03/17 11:24:45;;;;;;;4.97;2.20;;;;;;;11.07;72.29;100254.03;6265630;28;20059;-76
2024/03/17 11:27:59;;;;;;;4.60;2.42;;;;;;;11.20;73.09;100254.13;6274061;28;20131;-76
2024/03/17 11:31:06;;;;;;;7.13;2.30;;;;;;;11.22;72.97;100253.13;6272710;28;20643;-76
2024/03/17 11:34:34;;;;;;;6.07;2.30;;;;;;;11.48;71.96;100248.06;6260093;28;20060;-76
2024/03/17 11:37:43;;;;;;;19.02;7.97;;;;;;;11.37;72.51;100234.81;6243314;28;20053;-76
2024/03/17 11:40:48;;;;;;;14.77;6.03;;;;;;;11.31;73.39;100243.88;6267045;28;20045;-76
2024/03/17 11:43:49;;;;;;;4.40;2.15;;;;;;;11.39;72.36;100240.78;6249416;28;20567;-76
2024/03/17 11:46:58;;;;;;;9.32;2.78;;;;;;;11.42;71.58;100243.22;6247743;28;20045;-76
2024/03/17 11:50:05;;;;;;;5.43;2.90;;;;;;;11.66;72.30;100243.47;6248663;28;20487;-75
2024/03/17 11:53:11;;;;;;;9.00;3.17;;;;;;;11.47;70.67;100242.00;6249036;28;20061;-76
2024/03/17 11:56:11;;;;;;;8.10;2.17;;;;;;;11.35;71.68;100245.38;6253375;28;20052;-76
2024/03/17 11:59:12;;;;;;;9.73;3.00;;;;;;;11.56;72.28;100244.97;6271479;28;20045;-76
2024/03/17 12:02:21;;;;;;;3.33;2.10;;;;;;;11.36;70.77;100252.25;6252834;28;20072;-76
2024/03/17 12:05:22;;;;;;;3.53;2.05;;;;;;;11.32;70.61;100247.31;6244457;28;20075;-75
2024/03/17 12:08:26;;;;;;;8.20;2.00;;;;;;;11.31;69.93;100243.03;6247087;28;20474;-76
2024/03/17 12:11:29;;;;;;;4.65;1.85;;;;;;;11.18;69.08;100242.91;6246472;28;20049;-76
2024/03/17 12:14:31;;;;;;;4.35;2.03;;;;;;;10.97;68.61;100229.38;6247741;28;20076;-76
2024/03/17 12:17:32;;;;;;;3.85;2.30;;;;;;;11.05;69.61;100232.38;6247402;28;20352;-76
2024/03/17 12:20:33;;;;;;;5.05;2.25;;;;;;;11.18;70.74;100237.69;6248063;28;20507;-76
2024/03/17 12:23:34;;;;;;;4.13;2.05;;;;;;;11.23;67.80;100228.66;6246764;28;20050;-76
2024/03/17 12:26:35;;;;;;;3.78;1.92;;;;;;;11.50;66.05;100220.88;6272003;28;20059;-76
2024/03/17 12:29:40;;;;;;;6.47;2.20;;;;;;;11.89;65.72;100237.66;6272592;28;20394;-76
2024/03/17 12:32:41;;;;;;;5.40;2.00;;;;;;;11.32;65.35;100232.47;6272243;28;20198;-75
2024/03/17 12:35:42;;;;;;;5.03;2.10;;;;;;;11.65;66.41;100233.94;6272674;28;20501;-76
2024/03/17 12:38:43;;;;;;;19.23;11.65;;;;;;;11.54;65.13;100237.22;6257903;28;20103;-76
2024/03/17 12:41:45;;;;;;;3.88;2.20;;;;;;;11.13;64.35;100230.16;6262552;28;20049;-76
2024/03/17 12:44:57;;;;;;;4.20;1.67;;;;;;;11.33;65.14;100234.16;6246939;28;20480;-76
2024/03/17 12:47:58;;;;;;;3.50;1.98;;;;;;;11.04;64.55;100235.94;6232592;28;20058;-76
2024/03/17 12:50:59;;;;;;;5.75;2.10;;;;;;;10.63;64.66;100234.00;6245708;28;20141;-76
2024/03/17 12:54:17;;;;;;;2.67;1.40;;;;;;;10.42;64.47;100234.31;6235545;28;20079;-76
2024/03/17 13:00:42;;;;;;;3.13;1.77;;;;;;;10.42;67.22;100241.31;6253876;28;20493;-76
2024/03/17 13:03:44;;;;;;;3.88;2.00;;;;;;;10.20;67.02;100239.03;6247989;28;20049;-76
2024/03/17 13:06:45;;;;;;;2.50;1.77;;;;;;;10.14;67.95;100245.44;6246702;28;20076;-68
2024/03/17 13:09:46;;;;;;;5.75;2.38;;;;;;;10.32;68.17;100245.38;6246883;28;20045;-69
2024/03/17 13:12:58;;;;;;;11.80;4.97;;;;;;;10.30;68.62;100248.06;6246769;28;20103;-69
2024/03/17 13:15:59;;;;;;;7.30;2.53;;;;;;;10.29;67.39;100254.16;6246934;28;20103;-69
2024/03/17 13:19:00;;;;;;;7.90;2.72;;;;;;;10.25;67.89;100244.81;6246369;28;20123;-68
2024/03/17 13:22:03;;;;;;;5.88;2.47;;;;;;;10.39;68.25;100249.28;6244430;28;20458;-69
2024/03/17 13:25:05;;;;;;;5.80;2.70;;;;;;;10.48;69.28;100259.22;6232629;28;20159;-69
2024/03/17 13:28:06;;;;;;;3.45;2.40;;;;;;;10.43;69.51;100261.22;6239244;28;20077;-68
2024/03/17 13:31:10;;;;;;;4.28;2.30;;;;;;;10.24;69.80;100259.63;6239227;28;20053;-68
2024/03/17 13:34:13;;;;;;;9.40;2.55;;;;;;;10.52;70.36;100254.66;6234549;28;20053;-69
2024/03/17 13:37:14;;;;;;;5.10;2.53;;;;;;;10.37;68.83;100254.59;6223827;28;20068;-76
2024/03/17 13:40:19;;;;;;;9.60;3.42;;;;;;;10.70;69.05;100248.34;6236848;28;20057;-76
2024/03/17 13:43:20;;;;;;;6.57;2.45;;;;;;;10.60;68.83;100255.88;6224213;28;20073;-76
2024/03/17 13:46:22;;;;;;;7.88;3.50;;;;;;;10.62;68.10;100258.41;6221966;28;20054;-76
2024/03/17 13:49:23;;;;;;;8.90;4.32;;;;;;;10.63;70.02;100268.75;6237086;28;20049;-76
2024/03/17 13:52:25;;;;;;;9.10;4.00;;;;;;;11.02;71.08;100254.31;6220253;28;20068;-76
2024/03/17 13:55:29;;;;;;;8.53;3.23;;;;;;;10.67;70.02;100261.59;6224343;28;20053;-76